Time;durP1;ratioP1;P1;durP2;ratioP2;P2;SDS_P1;SDS_P2;PMS_P1;PMS_P2;Temp;Humidity;BMP_temperature;BMP_pressure;BME280_temperature;BME280_humidity;BME280_pressure;Samples;Min_cycle;Max_cycle;Signal;HPM_P1;HPM_P2
2023/01/09 00:01:35;;;;;;;5.40;1.73;;;7.30;95.20;;;;;;5093615;27;20399;-92
2023/01/09 00:04:01;;;;;;;4.27;1.10;;;7.30;95.40;;;;;;5094228;27;20909;-90
2023/01/09 00:06:27;;;;;;;5.85;1.52;;;7.20;95.50;;;;;;5092927;27;20523;-91
2023/01/09 00:08:53;;;;;;;5.80;1.65;;;7.20;95.70;;;;;;5111622;27;20485;-90
2023/01/09 00:11:19;;;;;;;4.93;1.43;;;7.20;95.60;;;;;;5092797;27;20480;-88
2023/01/09 00:13:46;;;;;;;3.90;1.50;;;7.20;95.70;;;;;;5094252;27;20416;-89
2023/01/09 00:16:11;;;;;;;4.78;1.60;;;7.20;95.70;;;;;;5093607;27;20429;-89
2023/01/09 00:18:38;;;;;;;7.05;1.77;;;7.10;95.80;;;;;;5093864;27;20912;-89
2023/01/09 00:21:07;;;;;;;4.32;1.60;;;7.10;95.80;;;;;;5094268;27;20414;-88
2023/01/09 00:23:33;;;;;;;5.13;1.60;;;7.20;95.80;;;;;;5109507;27;20398;-90
2023/01/09 00:26:10;;;;;;;6.57;1.97;;;7.40;95.80;;;;;;5094138;27;20423;-90
2023/01/09 00:28:36;;;;;;;5.20;1.50;;;7.20;95.90;;;;;;5092505;27;20406;-90
2023/01/09 00:31:03;;;;;;;4.18;1.48;;;7.20;95.80;;;;;;5092928;28;20589;-90
2023/01/09 00:33:34;;;;;;;4.45;1.60;;;7.20;95.90;;;;;;5092984;27;20403;-90
2023/01/09 00:36:01;;;;;;;4.20;1.58;;;7.20;95.90;;;;;;5092846;27;20512;-91
2023/01/09 00:38:26;;;;;;;4.38;1.27;;;7.20;95.90;;;;;;5093865;27;20406;-89
2023/01/09 00:40:54;;;;;;;3.63;1.20;;;7.20;95.80;;;;;;5092726;27;20399;-90
2023/01/09 00:43:22;;;;;;;4.35;1.20;;;7.20;95.80;;;;;;5110899;27;20430;-90
2023/01/09 00:45:48;;;;;;;4.88;1.33;;;7.20;95.80;;;;;;5091596;27;20506;-91
2023/01/09 00:48:25;;;;;;;3.97;1.30;;;7.20;95.70;;;;;;5093946;27;20810;-91
2023/01/09 00:50:51;;;;;;;3.38;0.80;;;7.20;95.70;;;;;;5092922;27;20773;-90
2023/01/09 00:53:20;;;;;;;3.85;1.13;;;7.20;95.60;;;;;;5093218;27;20403;-89
2023/01/09 00:55:45;;;;;;;3.33;1.00;;;7.20;95.60;;;;;;5093668;27;20447;-90
2023/01/09 00:58:11;;;;;;;3.75;0.90;;;7.20;95.50;;;;;;5109094;27;20989;-91
2023/01/09 01:00:37;;;;;;;4.77;0.90;;;7.30;95.40;;;;;;5110048;27;20765;-91
2023/01/09 01:03:03;;;;;;;4.23;1.00;;;7.50;95.40;;;;;;5091868;27;20430;-91
2023/01/09 01:08:18;;;;;;;2.92;0.85;;;7.30;95.10;;;;;;5109832;27;20398;-90
2023/01/09 01:10:45;;;;;;;4.03;1.10;;;7.30;95.10;;;;;;5109649;27;20975;-90
2023/01/09 01:13:10;;;;;;;4.22;1.08;;;7.30;95.00;;;;;;5092722;27;20424;-90
2023/01/09 01:15:40;;;;;;;2.47;0.85;;;7.30;94.90;;;;;;5091725;27;20411;-91
2023/01/09 01:18:06;;;;;;;4.18;0.90;;;7.30;94.80;;;;;;5093225;27;20920;-91
2023/01/09 01:20:32;;;;;;;3.75;1.00;;;7.40;94.80;;;;;;5091723;27;20391;-91
2023/01/09 01:22:58;;;;;;;5.45;1.30;;;7.30;94.70;;;;;;5092907;27;20427;-91
2023/01/09 01:25:23;;;;;;;3.00;1.20;;;7.30;94.80;;;;;;5091893;27;20449;-91
2023/01/09 01:27:49;;;;;;;3.83;1.20;;;7.30;94.80;;;;;;5108818;27;20410;-90
2023/01/09 01:30:16;;;;;;;4.70;1.17;;;7.40;94.70;;;;;;5092024;27;20419;-90
2023/01/09 01:32:42;;;;;;;4.70;1.42;;;7.40;94.70;;;;;;5091924;27;20410;-91
2023/01/09 01:35:09;;;;;;;6.38;1.50;;;7.40;94.60;;;;;;5093011;27;20410;-90
2023/01/09 01:37:35;;;;;;;4.40;1.25;;;7.40;94.60;;;;;;5091520;27;20399;-90
2023/01/09 01:40:03;;;;;;;4.68;1.40;;;7.40;94.60;;;;;;5092466;27;20414;-90
2023/01/09 01:42:28;;;;;;;6.65;1.60;;;7.40;94.60;;;;;;5108304;27;20406;-89
2023/01/09 01:45:11;;;;;;;4.95;1.63;;;7.40;94.60;;;;;;5108990;27;20419;-90
2023/01/09 01:47:58;;;;;;;6.27;1.80;;;7.30;94.70;;;;;;5109429;27;20766;-89
2023/01/09 01:50:44;;;;;;;8.35;1.98;;;7.30;94.70;;;;;;5090807;27;20430;-91
2023/01/09 01:53:23;;;;;;;7.53;1.92;;;7.20;94.70;;;;;;5092062;27;20403;-91
2023/01/09 01:56:00;;;;;;;6.10;1.95;;;7.20;94.60;;;;;;5091728;27;20469;-91
2023/01/09 01:58:27;;;;;;;6.57;1.70;;;7.10;94.60;;;;;;5091793;27;20403;-89
2023/01/09 02:00:52;;;;;;;5.95;1.65;;;7.10;94.60;;;;;;5092615;27;20399;-91
2023/01/09 02:03:22;;;;;;;7.68;1.63;;;7.10;94.60;;;;;;5090337;27;20409;-90
2023/01/09 02:05:48;;;;;;;6.50;1.52;;;7.00;94.50;;;;;;5091714;27;20405;-90
2023/01/09 02:08:13;;;;;;;7.23;1.63;;;7.00;94.60;;;;;;5091115;27;20757;-89
2023/01/09 02:10:40;;;;;;;6.77;1.50;;;6.90;94.60;;;;;;5092081;27;20830;-90
2023/01/09 02:13:07;;;;;;;7.85;1.83;;;6.90;94.60;;;;;;5090793;27;20773;-89
2023/01/09 02:15:54;;;;;;;6.73;1.60;;;6.80;94.70;;;;;;5089823;27;20451;-90
2023/01/09 02:18:44;;;;;;;5.70;1.47;;;7.10;94.90;;;;;;5090821;27;20449;-89
2023/01/09 02:21:33;;;;;;;7.40;1.83;;;6.70;94.90;;;;;;5089100;27;20398;-90
2023/01/09 02:24:45;;;;;;;9.80;1.77;;;6.60;94.90;;;;;;5090963;27;20446;-90
2023/01/09 02:27:20;;;;;;;6.38;1.48;;;6.70;95.00;;;;;;5091657;27;20418;-91
2023/01/09 02:30:04;;;;;;;6.82;1.98;;;6.70;95.10;;;;;;5090466;27;20489;-90
2023/01/09 02:33:14;;;;;;;5.85;1.75;;;6.60;95.20;;;;;;5090918;27;20414;-91
2023/01/09 02:36:01;;;;;;;9.52;2.45;;;6.60;95.20;;;;;;5090769;27;20470;-91
2023/01/09 02:38:31;;;;;;;8.27;2.00;;;6.50;95.20;;;;;;5089926;27;20525;-90
2023/01/09 02:41:07;;;;;;;7.90;2.80;;;6.50;95.20;;;;;;5090890;27;20415;-90
2023/01/09 02:43:33;;;;;;;6.83;1.90;;;6.40;95.20;;;;;;5090623;27;20430;-91
2023/01/09 02:45:58;;;;;;;6.67;2.20;;;6.40;95.40;;;;;;5090326;27;20418;-90
2023/01/09 02:48:24;;;;;;;8.85;2.38;;;6.30;95.20;;;;;;5091154;27;20483;-91
2023/01/09 02:51:20;;;;;;;7.97;2.50;;;6.20;95.40;;;;;;5089879;27;20917;-91
2023/01/09 02:54:31;;;;;;;8.23;2.80;;;6.20;95.40;;;;;;5107706;27;20416;-90
2023/01/09 02:57:22;;;;;;;7.85;2.60;;;6.10;95.50;;;;;;5103879;27;20405;-90
2023/01/09 03:00:06;;;;;;;6.32;2.50;;;5.90;95.70;;;;;;5106731;27;20418;-91
2023/01/09 03:02:45;;;;;;;8.20;2.60;;;5.90;95.80;;;;;;5090966;28;20466;-90
2023/01/09 03:05:22;;;;;;;6.22;2.30;;;5.80;96.00;;;;;;5090687;28;20403;-90
2023/01/09 03:08:00;;;;;;;7.28;2.85;;;5.80;96.10;;;;;;5107468;28;20794;-90
2023/01/09 03:10:34;;;;;;;8.88;2.65;;;5.80;96.40;;;;;;5090943;28;20470;-90
2023/01/09 03:13:01;;;;;;;8.40;2.67;;;5.90;96.30;;;;;;5106521;28;20439;-91
2023/01/09 03:15:33;;;;;;;8.45;2.38;;;5.90;96.40;;;;;;5107651;28;20929;-91
2023/01/09 03:18:00;;;;;;;10.47;3.33;;;5.70;96.40;;;;;;5090663;28;20731;-89
2023/01/09 03:20:26;;;;;;;7.07;2.27;;;5.60;96.40;;;;;;5089971;28;20399;-90
2023/01/09 03:22:55;;;;;;;11.38;3.03;;;5.60;96.50;;;;;;5091033;28;20402;-90
2023/01/09 03:25:21;;;;;;;9.48;3.40;;;5.70;96.60;;;;;;5107074;28;20775;-90
2023/01/09 03:27:47;;;;;;;9.82;2.97;;;5.60;96.50;;;;;;5091211;28;20746;-91
2023/01/09 03:30:13;;;;;;;11.05;2.72;;;5.60;96.50;;;;;;5089103;28;20418;-91
2023/01/09 03:32:39;;;;;;;8.63;2.70;;;5.60;96.60;;;;;;5090069;28;20401;-91
2023/01/09 03:35:04;;;;;;;9.67;2.87;;;5.60;96.60;;;;;;5090132;28;20416;-90
2023/01/09 03:37:30;;;;;;;7.78;2.90;;;5.50;96.50;;;;;;5090815;28;20395;-91
2023/01/09 03:39:56;;;;;;;10.63;3.35;;;5.50;96.50;;;;;;5090466;28;20409;-90
2023/01/09 03:42:21;;;;;;;7.93;3.08;;;5.50;96.60;;;;;;5089583;28;20403;-92
2023/01/09 03:44:49;;;;;;;8.27;3.23;;;5.50;96.70;;;;;;5090667;28;20839;-89
2023/01/09 03:47:15;;;;;;;8.93;3.15;;;5.40;96.70;;;;;;5089361;28;20448;-91
2023/01/09 03:49:40;;;;;;;8.13;3.17;;;5.40;96.80;;;;;;5107928;28;20901;-89
2023/01/09 03:52:06;;;;;;;8.77;3.43;;;5.90;96.80;;;;;;5089445;28;20413;-90
2023/01/09 03:54:31;;;;;;;10.60;3.50;;;5.40;96.80;;;;;;5107369;28;20806;-90
2023/01/09 03:56:57;;;;;;;7.22;3.53;;;5.40;96.80;;;;;;5089905;28;20735;-89
2023/01/09 03:59:24;;;;;;;8.20;3.50;;;5.40;96.80;;;;;;5090090;28;20497;-89
2023/01/09 04:01:50;;;;;;;10.35;3.65;;;5.50;96.80;;;;;;5107600;28;20403;-89
2023/01/09 04:04:16;;;;;;;11.23;4.10;;;5.50;96.90;;;;;;5089646;28;20445;-91
2023/01/09 04:06:41;;;;;;;9.27;4.23;;;5.50;96.80;;;;;;5092685;27;20486;-88
2023/01/09 04:09:07;;;;;;;12.15;4.07;;;5.50;96.70;;;;;;5093199;27;20911;-89
2023/01/09 04:11:32;;;;;;;9.97;4.43;;;5.50;96.70;;;;;;5094132;27;21032;-90
2023/01/09 04:13:58;;;;;;;9.80;4.40;;;5.60;96.80;;;;;;5110449;27;20409;-91
2023/01/09 04:16:23;;;;;;;9.23;4.30;;;5.60;96.70;;;;;;5093870;27;20434;-91
2023/01/09 04:18:49;;;;;;;9.93;4.50;;;5.60;96.70;;;;;;5093832;27;20439;-91
2023/01/09 04:21:15;;;;;;;11.45;4.35;;;5.70;96.60;;;;;;5093536;27;20407;-90
2023/01/09 04:23:40;;;;;;;10.77;4.68;;;5.70;96.50;;;;;;5094086;27;20414;-91
2023/01/09 04:26:06;;;;;;;11.57;4.70;;;5.70;96.40;;;;;;5092390;27;20761;-90
2023/01/09 04:28:32;;;;;;;9.93;4.73;;;5.60;96.50;;;;;;5093741;27;20443;-90
2023/01/09 04:30:58;;;;;;;9.07;4.57;;;5.70;96.50;;;;;;5092150;27;20430;-90
2023/01/09 04:33:23;;;;;;;10.80;4.47;;;5.70;96.40;;;;;;5093738;27;20901;-90
2023/01/09 04:35:49;;;;;;;9.02;4.38;;;5.80;96.40;;;;;;5092670;27;20418;-90
2023/01/09 04:38:14;;;;;;;8.23;4.10;;;5.80;96.30;;;;;;5093664;27;20405;-89
2023/01/09 04:40:40;;;;;;;10.75;4.22;;;5.80;96.30;;;;;;5093290;27;20509;-90
2023/01/09 04:43:06;;;;;;;10.15;4.80;;;5.80;96.20;;;;;;5092754;27;20749;-91
2023/01/09 04:45:31;;;;;;;11.60;4.57;;;5.70;96.10;;;;;;5093394;27;20531;-91
2023/01/09 04:47:57;;;;;;;9.38;4.28;;;5.70;96.10;;;;;;5092089;27;20409;-90
2023/01/09 04:50:22;;;;;;;12.32;5.40;;;5.70;96.10;;;;;;5110268;27;20446;-90
2023/01/09 04:52:48;;;;;;;11.63;4.90;;;5.60;96.10;;;;;;5092279;27;20438;-91
2023/01/09 04:55:14;;;;;;;10.13;4.88;;;5.60;96.20;;;;;;5093064;27;20390;-91
2023/01/09 04:57:39;;;;;;;11.07;5.67;;;5.60;96.20;;;;;;5092823;27;20487;-90
2023/01/09 05:00:11;;;;;;;10.97;5.20;;;5.50;96.30;;;;;;5109566;27;20506;-91
2023/01/09 05:02:37;;;;;;;12.77;5.45;;;5.50;96.40;;;;;;5093585;27;20452;-91
2023/01/09 05:05:05;;;;;;;11.98;5.50;;;5.50;96.30;;;;;;5092092;27;20878;-91
2023/01/09 05:07:30;;;;;;;11.77;6.05;;;5.50;96.40;;;;;;5093543;27;20773;-91
2023/01/09 05:09:56;;;;;;;11.07;5.77;;;5.70;96.70;;;;;;5091800;27;20878;-91
2023/01/09 05:12:21;;;;;;;14.20;6.47;;;5.40;96.40;;;;;;5092817;27;20471;-90
2023/01/09 05:14:47;;;;;;;12.90;6.50;;;5.40;96.50;;;;;;5092481;27;21018;-90
2023/01/09 05:17:12;;;;;;;11.90;6.97;;;5.40;96.60;;;;;;5092212;28;20441;-91
2023/01/09 05:19:38;;;;;;;14.07;7.25;;;5.40;96.60;;;;;;5092532;27;20443;-90
2023/01/09 05:22:04;;;;;;;14.50;7.93;;;5.40;96.80;;;;;;5092013;27;20446;-91
2023/01/09 05:24:30;;;;;;;13.10;8.10;;;5.50;96.90;;;;;;5092721;27;20395;-90
2023/01/09 05:26:55;;;;;;;16.63;8.63;;;5.50;96.80;;;;;;5108197;27;20407;-91
2023/01/09 05:29:21;;;;;;;15.25;9.45;;;5.60;96.70;;;;;;5109988;27;20398;-91
2023/01/09 05:31:46;;;;;;;14.10;9.60;;;5.50;96.60;;;;;;5091236;27;20506;-90
2023/01/09 05:34:12;;;;;;;16.70;9.77;;;5.60;96.60;;;;;;5092506;27;20398;-91
2023/01/09 05:36:38;;;;;;;16.42;9.95;;;5.50;96.50;;;;;;5091959;27;20403;-90
2023/01/09 05:39:04;;;;;;;15.53;10.63;;;5.50;96.50;;;;;;5091872;27;20447;-91
2023/01/09 05:41:30;;;;;;;17.05;11.15;;;5.50;96.50;;;;;;5109733;27;20476;-91
2023/01/09 05:43:55;;;;;;;16.63;11.07;;;5.40;96.50;;;;;;5108073;27;20840;-91
2023/01/09 05:46:21;;;;;;;16.73;11.97;;;5.50;96.50;;;;;;5092365;27;20402;-90
2023/01/09 05:48:47;;;;;;;20.23;12.47;;;5.40;96.50;;;;;;5090592;27;20430;-91
2023/01/09 05:51:12;;;;;;;18.40;13.48;;;5.40;96.60;;;;;;5109325;27;20521;-90
2023/01/09 05:53:38;;;;;;;20.30;13.77;;;5.30;96.50;;;;;;5092043;27;20391;-90
2023/01/09 05:56:04;;;;;;;22.40;15.57;;;5.40;96.60;;;;;;5091653;27;20399;-91
2023/01/09 05:58:30;;;;;;;22.87;15.23;;;5.30;96.70;;;;;;5091609;27;20753;-90
2023/01/09 06:00:56;;;;;;;21.65;15.00;;;5.40;96.80;;;;;;5091580;27;20402;-90
2023/01/09 06:03:22;;;;;;;20.50;15.85;;;5.40;96.80;;;;;;5109553;27;20749;-90
2023/01/09 06:05:48;;;;;;;25.07;17.93;;;5.40;96.80;;;;;;5090557;27;20403;-90
2023/01/09 06:08:13;;;;;;;24.03;18.17;;;5.50;96.80;;;;;;5092500;27;20758;-90
2023/01/09 06:10:39;;;;;;;26.50;18.75;;;5.50;96.80;;;;;;5090347;27;20432;-90
2023/01/09 06:13:04;;;;;;;23.33;18.70;;;5.60;96.80;;;;;;5091404;27;20892;-90
2023/01/09 06:15:30;;;;;;;24.70;19.13;;;5.60;97.00;;;;;;5091657;27;20425;-90
2023/01/09 06:17:55;;;;;;;27.55;20.30;;;5.70;96.70;;;;;;5091316;27;20897;-90
2023/01/09 06:20:21;;;;;;;27.27;20.70;;;5.70;96.70;;;;;;5091469;27;20439;-90
2023/01/09 06:22:50;;;;;;;27.38;20.00;;;5.80;96.60;;;;;;5090591;27;20455;-91
2023/01/09 06:25:16;;;;;;;27.55;21.42;;;5.70;96.60;;;;;;5108255;27;20398;-90
2023/01/09 06:27:42;;;;;;;27.25;20.52;;;5.80;96.50;;;;;;5090582;27;20391;-90
2023/01/09 06:30:08;;;;;;;29.83;21.02;;;5.80;96.50;;;;;;5108846;27;20842;-89
2023/01/09 06:32:33;;;;;;;25.25;21.25;;;5.90;96.50;;;;;;5090608;27;20399;-90
2023/01/09 06:34:59;;;;;;;28.90;21.85;;;5.90;96.40;;;;;;5091171;27;20403;-90
2023/01/09 06:37:25;;;;;;;26.57;21.87;;;5.90;96.30;;;;;;5090869;27;20910;-91
2023/01/09 06:39:50;;;;;;;28.13;22.25;;;5.90;96.20;;;;;;5090533;27;20445;-90
2023/01/09 06:42:16;;;;;;;27.00;21.50;;;5.90;96.20;;;;;;5091396;27;20403;-89
2023/01/09 06:44:41;;;;;;;26.33;21.97;;;5.90;96.10;;;;;;5090138;27;20417;-90
2023/01/09 06:47:07;;;;;;;24.00;20.52;;;5.90;96.10;;;;;;5091327;27;20403;-90
2023/01/09 06:49:32;;;;;;;24.30;20.57;;;5.90;96.10;;;;;;5090459;27;20410;-88
2023/01/09 06:51:58;;;;;;;25.60;21.27;;;5.90;96.00;;;;;;5091021;28;20421;-90
2023/01/09 06:54:24;;;;;;;27.00;21.60;;;5.90;96.00;;;;;;5090510;27;20406;-89
2023/01/09 06:56:49;;;;;;;24.47;21.03;;;5.90;96.00;;;;;;5107533;27;20405;-90
2023/01/09 06:59:15;;;;;;;23.63;20.35;;;6.00;95.90;;;;;;5091233;27;21031;-89
2023/01/09 07:01:40;;;;;;;27.53;21.17;;;6.00;95.90;;;;;;5090560;28;20497;-91
2023/01/09 07:04:08;;;;;;;23.13;20.63;;;6.00;95.90;;;;;;5091175;28;20394;-90
2023/01/09 07:06:34;;;;;;;25.23;19.90;;;6.20;95.90;;;;;;5106770;28;20398;-90
2023/01/09 07:09:00;;;;;;;25.70;20.20;;;6.00;95.70;;;;;;5091383;28;21007;-90
2023/01/09 07:11:25;;;;;;;22.67;18.30;;;6.40;95.80;;;;;;5106561;28;20912;-90
2023/01/09 07:13:51;;;;;;;26.27;18.83;;;6.10;95.70;;;;;;5107043;28;20928;-90
2023/01/09 07:16:17;;;;;;;20.13;17.33;;;6.10;95.60;;;;;;5107803;28;20419;-91
2023/01/09 07:18:42;;;;;;;19.33;16.73;;;6.10;95.50;;;;;;5090319;28;20920;-90
2023/01/09 07:21:08;;;;;;;22.67;17.85;;;6.10;95.40;;;;;;5107631;28;20398;-90
2023/01/09 07:23:34;;;;;;;21.50;17.10;;;6.00;95.40;;;;;;5089626;28;20417;-90
2023/01/09 07:26:00;;;;;;;20.40;16.60;;;6.00;95.30;;;;;;5091082;28;20486;-91
2023/01/09 07:28:25;;;;;;;20.30;16.80;;;5.90;95.40;;;;;;5089499;28;20398;-89
2023/01/09 07:30:51;;;;;;;20.77;16.88;;;5.90;95.40;;;;;;5090902;28;20422;-91
2023/01/09 07:33:17;;;;;;;21.05;16.63;;;5.80;95.50;;;;;;5090244;28;20505;-89
2023/01/09 07:35:42;;;;;;;21.33;15.43;;;5.80;95.50;;;;;;5089874;28;20622;-90
2023/01/09 07:38:08;;;;;;;19.93;15.90;;;5.80;95.90;;;;;;5107114;28;20558;-90
2023/01/09 07:40:34;;;;;;;21.00;16.50;;;5.90;95.60;;;;;;5090127;27;20397;-89
2023/01/09 07:42:59;;;;;;;19.92;16.23;;;5.90;95.60;;;;;;5111562;27;20402;-90
2023/01/09 07:45:25;;;;;;;20.17;16.13;;;5.90;95.60;;;;;;5093730;27;20399;-90
2023/01/09 07:47:51;;;;;;;18.77;14.90;;;5.90;95.60;;;;;;5095089;27;20395;-90
2023/01/09 07:50:17;;;;;;;19.08;14.25;;;5.90;95.60;;;;;;5110210;27;20418;-90
2023/01/09 07:52:46;;;;;;;16.15;13.10;;;5.90;95.50;;;;;;5094607;27;20506;-91
2023/01/09 07:55:12;;;;;;;16.27;12.88;;;6.00;95.50;;;;;;5094109;27;20919;-91
2023/01/09 07:57:37;;;;;;;18.03;12.57;;;6.00;95.50;;;;;;5094059;27;20402;-92
2023/01/09 08:00:05;;;;;;;15.93;13.77;;;6.00;95.50;;;;;;5094455;27;20394;-90
2023/01/09 08:02:31;;;;;;;15.52;12.48;;;6.00;95.40;;;;;;5093005;27;20444;-90
2023/01/09 08:04:57;;;;;;;18.20;12.75;;;6.00;95.40;;;;;;5111143;27;20893;-90
2023/01/09 08:07:23;;;;;;;14.77;11.70;;;6.00;95.40;;;;;;5093067;27;20407;-90
2023/01/09 08:09:48;;;;;;;14.73;11.37;;;5.90;95.40;;;;;;5111598;27;20410;-90
2023/01/09 08:12:14;;;;;;;16.27;11.97;;;5.90;95.40;;;;;;5093520;27;20919;-90
2023/01/09 08:14:39;;;;;;;14.73;11.70;;;5.90;95.40;;;;;;5093378;27;20418;-90
2023/01/09 08:17:05;;;;;;;15.90;12.23;;;6.00;95.50;;;;;;5110470;27;20390;-88
2023/01/09 08:19:31;;;;;;;16.33;11.63;;;6.00;95.50;;;;;;5093020;27;20473;-90
2023/01/09 08:21:56;;;;;;;15.70;11.90;;;6.10;95.40;;;;;;5111072;27;20406;-91
2023/01/09 08:24:22;;;;;;;16.33;11.70;;;6.00;95.40;;;;;;5093180;27;20447;-90
2023/01/09 08:26:47;;;;;;;13.93;11.50;;;6.20;95.30;;;;;;5093582;27;20413;-91
2023/01/09 08:29:13;;;;;;;14.23;11.50;;;6.10;95.40;;;;;;5092696;27;20840;-89
2023/01/09 08:31:39;;;;;;;14.93;11.20;;;6.10;95.30;;;;;;5110714;27;20422;-90
2023/01/09 08:34:04;;;;;;;16.47;12.13;;;6.10;95.30;;;;;;5093460;27;20402;-90
2023/01/09 08:36:30;;;;;;;15.18;10.13;;;6.10;95.40;;;;;;5093354;27;20825;-89
2023/01/09 08:38:55;;;;;;;15.77;11.07;;;6.20;95.20;;;;;;5110433;27;20467;-91
2023/01/09 08:47:04;;;;;;;15.63;11.52;;;6.20;95.00;;;;;;5109332;27;20447;-90
2023/01/09 08:49:30;;;;;;;15.25;11.45;;;6.20;95.10;;;;;;5092607;27;20622;-90
2023/01/09 08:51:56;;;;;;;15.25;11.10;;;6.20;95.10;;;;;;5092143;28;20505;-90
2023/01/09 08:54:22;;;;;;;13.95;11.48;;;6.30;95.10;;;;;;5092290;27;20469;-91
2023/01/09 08:56:47;;;;;;;17.35;11.25;;;6.20;95.00;;;;;;5093104;27;20877;-91
2023/01/09 08:59:15;;;;;;;16.50;11.20;;;6.20;95.00;;;;;;5091931;27;20395;-90
2023/01/09 09:01:40;;;;;;;15.57;11.10;;;6.20;95.00;;;;;;5093565;27;20402;-90
2023/01/09 09:04:06;;;;;;;16.33;11.27;;;6.20;95.00;;;;;;5109373;27;20768;-90
2023/01/09 09:06:32;;;;;;;16.60;11.40;;;6.40;95.20;;;;;;5092800;27;20402;-91
2023/01/09 09:09:02;;;;;;;13.90;11.10;;;6.30;95.00;;;;;;5092885;27;20399;-90
2023/01/09 09:11:29;;;;;;;13.95;10.77;;;6.30;95.00;;;;;;5092281;27;20728;-90
2023/01/09 09:13:55;;;;;;;14.33;11.43;;;6.40;95.00;;;;;;5092710;27;20469;-90
2023/01/09 09:16:20;;;;;;;13.90;9.90;;;6.40;95.10;;;;;;5092273;27;20871;-91
2023/01/09 09:18:46;;;;;;;16.08;10.75;;;6.40;95.00;;;;;;5093195;27;20395;-90
2023/01/09 09:21:12;;;;;;;11.30;8.68;;;6.50;95.00;;;;;;5091749;27;20445;-90
2023/01/09 09:23:37;;;;;;;14.20;9.60;;;6.50;94.80;;;;;;5109857;27;20418;-90
2023/01/09 09:26:03;;;;;;;11.27;8.70;;;6.50;94.80;;;;;;5092162;27;20766;-91
2023/01/09 09:28:29;;;;;;;13.20;9.35;;;6.50;94.80;;;;;;5092452;27;20765;-90
2023/01/09 09:30:55;;;;;;;15.10;9.97;;;6.50;94.80;;;;;;5092565;27;20415;-91
2023/01/09 09:33:20;;;;;;;13.85;9.70;;;6.50;94.80;;;;;;5091797;27;20423;-90
2023/01/09 09:35:46;;;;;;;11.70;9.20;;;6.50;94.70;;;;;;5092432;27;20406;-91
2023/01/09 09:38:12;;;;;;;12.43;9.00;;;6.60;94.90;;;;;;5091577;27;20383;-90
2023/01/09 09:44:41;;;;;;;13.13;9.40;;;6.60;94.80;;;;;;5092600;27;20456;-90
2023/01/09 09:47:15;;;;;;;15.25;9.48;;;6.70;94.90;;;;;;5107995;27;20638;-90
2023/01/09 09:50:19;;;;;;;11.87;9.07;;;6.70;94.90;;;;;;5091835;27;20407;-90
2023/01/09 09:53:02;;;;;;;14.35;9.15;;;6.70;94.80;;;;;;5092297;27;20481;-90
2023/01/09 09:55:35;;;;;;;11.38;8.05;;;6.80;94.80;;;;;;5090669;27;20403;-89
2023/01/09 09:58:22;;;;;;;11.73;7.82;;;6.80;94.70;;;;;;5091680;27;20411;-91
2023/01/09 10:00:49;;;;;;;11.30;7.45;;;6.90;94.60;;;;;;5091467;27;20541;-90
2023/01/09 10:03:35;;;;;;;10.77;7.78;;;7.00;94.70;;;;;;5090780;27;20403;-91
2023/01/09 10:06:14;;;;;;;11.90;7.97;;;6.90;94.70;;;;;;5092346;27;21393;-91
2023/01/09 10:08:45;;;;;;;11.00;8.25;;;7.00;94.70;;;;;;5090939;27;20403;-90
2023/01/09 10:11:19;;;;;;;10.38;7.35;;;7.00;94.70;;;;;;5091587;27;20509;-90
2023/01/09 10:16:56;;;;;;;9.55;6.97;;;7.10;94.50;;;;;;5107442;27;20403;-90
2023/01/09 10:19:51;;;;;;;10.68;6.38;;;7.10;94.30;;;;;;5092291;27;20406;-89
2023/01/09 10:22:31;;;;;;;11.13;7.43;;;7.20;94.40;;;;;;5091086;27;20406;-90
2023/01/09 10:25:02;;;;;;;12.85;7.88;;;7.20;94.30;;;;;;5090648;27;20407;-90
2023/01/09 10:27:49;;;;;;;12.43;7.30;;;7.20;94.50;;;;;;5091370;27;20402;-90
2023/01/09 10:30:25;;;;;;;12.98;7.53;;;7.30;94.30;;;;;;5107431;27;20422;-93
2023/01/09 10:33:18;;;;;;;10.07;6.20;;;7.30;94.10;;;;;;5091852;27;20403;-89
2023/01/09 10:36:07;;;;;;;9.00;6.40;;;7.30;93.90;;;;;;5091451;27;20421;-90
2023/01/09 10:38:40;;;;;;;9.63;6.10;;;7.40;94.00;;;;;;5090333;27;20450;-88
2023/01/09 10:41:15;;;;;;;10.85;6.70;;;7.40;94.20;;;;;;5091030;27;20395;-90
2023/01/09 10:43:43;;;;;;;9.95;6.72;;;7.50;94.20;;;;;;5090497;27;20761;-90
2023/01/09 10:46:15;;;;;;;9.55;6.32;;;7.50;94.20;;;;;;5107950;27;20984;-90
2023/01/09 10:48:46;;;;;;;9.05;5.55;;;7.50;94.00;;;;;;5091139;27;20415;-90
2023/01/09 10:51:21;;;;;;;9.73;6.03;;;7.70;93.70;;;;;;5090231;27;20841;-90
2023/01/09 10:53:55;;;;;;;9.27;5.90;;;7.60;93.90;;;;;;5108148;27;20407;-90
2023/01/09 10:56:27;;;;;;;8.52;5.68;;;7.60;93.70;;;;;;5089526;28;20444;-91
2023/01/09 10:58:54;;;;;;;10.23;5.90;;;7.60;93.70;;;;;;5090681;27;20418;-91
2023/01/09 11:01:37;;;;;;;10.68;5.95;;;7.60;93.60;;;;;;5090801;27;20394;-88
2023/01/09 11:04:16;;;;;;;11.07;6.90;;;7.60;93.60;;;;;;5090195;28;20969;-90
2023/01/09 11:07:15;;;;;;;8.60;6.20;;;7.50;93.70;;;;;;5091255;27;20399;-91
2023/01/09 11:10:03;;;;;;;10.43;6.55;;;7.60;93.80;;;;;;5089617;28;20811;-90
2023/01/09 11:12:31;;;;;;;10.47;7.00;;;7.50;93.80;;;;;;5090727;28;20407;-91
2023/01/09 11:15:19;;;;;;;10.40;6.68;;;7.50;93.80;;;;;;5091091;27;20771;-90
2023/01/09 11:17:46;;;;;;;11.57;7.20;;;7.50;94.00;;;;;;5106742;28;20406;-91
2023/01/09 11:20:27;;;;;;;11.32;6.80;;;7.50;94.00;;;;;;5108053;28;20768;-91
2023/01/09 11:22:55;;;;;;;9.45;6.40;;;7.30;94.00;;;;;;5090292;28;20418;-90
2023/01/09 11:25:23;;;;;;;10.13;6.70;;;7.50;93.80;;;;;;5090175;28;20399;-90
2023/01/09 11:28:01;;;;;;;11.48;7.30;;;7.40;93.90;;;;;;5090550;28;20771;-91
2023/01/09 11:30:28;;;;;;;11.27;7.18;;;7.40;94.30;;;;;;5089904;28;20518;-90
2023/01/09 11:32:57;;;;;;;9.23;6.53;;;7.40;94.30;;;;;;5090787;28;20837;-91
2023/01/09 11:35:32;;;;;;;10.60;7.22;;;7.50;94.20;;;;;;5106205;28;20415;-89
2023/01/09 11:38:13;;;;;;;10.48;8.27;;;7.50;94.30;;;;;;5090452;28;20823;-90
2023/01/09 11:40:53;;;;;;;11.85;7.47;;;7.60;94.30;;;;;;5090657;28;20395;-90
2023/01/09 11:43:31;;;;;;;10.57;7.80;;;7.70;94.30;;;;;;5089153;28;20410;-90
2023/01/09 11:45:59;;;;;;;9.48;7.53;;;7.70;94.20;;;;;;5090241;28;20395;-90
2023/01/09 11:48:34;;;;;;;9.10;7.13;;;7.80;94.00;;;;;;5089510;28;20405;-90
2023/01/09 11:51:05;;;;;;;11.77;7.60;;;7.80;93.90;;;;;;5100761;28;20429;-89
2023/01/09 11:53:49;;;;;;;11.20;7.90;;;7.80;93.80;;;;;;5107221;28;20394;-90
2023/01/09 11:56:16;;;;;;;12.82;7.80;;;7.80;93.70;;;;;;5089799;28;20409;-91
2023/01/09 11:58:42;;;;;;;9.93;7.93;;;7.80;93.70;;;;;;5090902;28;20394;-90
2023/01/09 12:01:16;;;;;;;10.83;7.57;;;7.70;93.70;;;;;;5089056;28;20399;-91
2023/01/09 12:03:57;;;;;;;9.73;7.85;;;7.80;93.70;;;;;;5090561;28;20487;-92
2023/01/09 12:06:25;;;;;;;12.10;8.80;;;7.80;93.70;;;;;;5090196;28;20414;-91
2023/01/09 12:08:55;;;;;;;11.55;8.57;;;7.70;93.80;;;;;;5089674;28;20514;-91
2023/01/09 12:11:45;;;;;;;12.27;8.43;;;7.70;94.00;;;;;;5089975;28;20463;-90
2023/01/09 12:14:26;;;;;;;14.63;9.90;;;7.80;94.10;;;;;;5089811;28;20467;-90
2023/01/09 12:17:16;;;;;;;13.15;9.93;;;7.80;94.30;;;;;;5106870;28;20403;-90
2023/01/09 12:20:15;;;;;;;13.80;9.85;;;7.70;94.30;;;;;;5090484;28;20507;-90
2023/01/09 12:23:08;;;;;;;11.45;9.88;;;7.70;94.70;;;;;;5038968;28;20552;-89
2023/01/09 12:25:43;;;;;;;14.38;10.00;;;7.80;94.80;;;;;;5106873;28;20398;-90
2023/01/09 12:28:21;;;;;;;13.10;9.77;;;7.90;94.80;;;;;;5092633;27;20394;-89
2023/01/09 12:31:06;;;;;;;13.45;9.80;;;8.00;94.50;;;;;;5092953;27;20423;-90
2023/01/09 12:33:53;;;;;;;13.07;9.65;;;8.00;94.30;;;;;;5094280;27;20521;-91
2023/01/09 12:36:27;;;;;;;13.85;9.38;;;8.00;94.20;;;;;;5093257;27;20411;-90
2023/01/09 12:39:16;;;;;;;12.70;10.10;;;8.00;94.30;;;;;;5092903;27;20409;-90
2023/01/09 12:41:56;;;;;;;13.40;9.73;;;8.00;94.10;;;;;;5093927;27;20399;-90
2023/01/09 12:44:29;;;;;;;13.05;9.38;;;8.00;94.10;;;;;;5092263;27;20668;-90
2023/01/09 12:47:16;;;;;;;13.07;9.52;;;8.00;94.20;;;;;;5110541;27;20923;-90
2023/01/09 12:49:58;;;;;;;12.47;9.87;;;8.10;94.00;;;;;;5110240;27;20459;-91
2023/01/09 12:52:35;;;;;;;14.95;10.10;;;8.10;94.20;;;;;;5092873;27;20406;-91
2023/01/09 12:55:13;;;;;;;11.40;9.07;;;8.20;94.40;;;;;;5093748;27;20803;-89
2023/01/09 12:57:51;;;;;;;14.05;9.73;;;8.30;93.70;;;;;;5092104;27;20431;-90
2023/01/09 13:00:39;;;;;;;12.00;9.55;;;8.30;93.60;;;;;;5093118;27;20446;-90
2023/01/09 13:03:09;;;;;;;11.00;9.82;;;8.30;93.60;;;;;;5110068;27;20913;-90
2023/01/09 13:05:41;;;;;;;14.00;10.98;;;8.40;93.80;;;;;;5092202;27;20425;-90
2023/01/09 13:08:25;;;;;;;13.95;10.15;;;8.30;93.90;;;;;;5110185;27;20425;-90
2023/01/09 13:10:55;;;;;;;14.00;10.25;;;8.40;93.80;;;;;;5091892;27;20513;-90
2023/01/09 13:13:29;;;;;;;11.73;9.80;;;8.40;93.80;;;;;;5109430;27;20997;-91
2023/01/09 13:16:03;;;;;;;11.98;9.63;;;8.50;93.80;;;;;;5092642;27;20897;-90
2023/01/09 13:18:50;;;;;;;12.88;9.55;;;8.60;93.30;;;;;;5092013;27;20488;-89
2023/01/09 13:21:16;;;;;;;11.90;9.13;;;8.70;93.60;;;;;;5092959;27;20773;-90